createdAt,value
2023-05-07T00:02:12.840Z,9.84
2023-05-07T00:04:39.271Z,9.78
2023-05-07T00:07:05.609Z,9.71
2023-05-07T00:09:34.706Z,9.65
2023-05-07T00:12:01.289Z,9.60
2023-05-07T00:14:27.704Z,9.53
2023-05-07T00:16:54.212Z,9.45
2023-05-07T00:19:20.695Z,9.39
2023-05-07T00:21:47.051Z,9.38
2023-05-07T00:24:13.480Z,9.37
2023-05-07T00:26:39.824Z,9.37
2023-05-07T00:29:06.138Z,9.37
2023-05-07T00:31:32.814Z,9.37
2023-05-07T00:33:59.277Z,9.36
2023-05-07T00:36:25.590Z,9.36
2023-05-07T00:38:51.991Z,9.35
2023-05-07T00:41:20.551Z,9.34
2023-05-07T00:43:46.963Z,9.31
2023-05-07T00:46:14.074Z,9.30
2023-05-07T00:48:40.847Z,9.27
2023-05-07T00:51:07.654Z,9.26
2023-05-07T00:53:34.879Z,9.26
2023-05-07T00:56:01.272Z,9.26
2023-05-07T00:58:27.752Z,9.22
2023-05-07T01:01:02.584Z,9.17
2023-05-07T01:03:29.018Z,9.14
2023-05-07T01:05:57.408Z,9.13
2023-05-07T01:08:24.469Z,9.13
2023-05-07T01:10:51.336Z,9.14
2023-05-07T01:13:19.024Z,9.14
2023-05-07T01:15:45.733Z,9.16
2023-05-07T01:18:12.530Z,9.17
2023-05-07T01:20:39.163Z,9.18
2023-05-07T01:23:07.319Z,9.20
2023-05-07T01:25:33.858Z,9.20
2023-05-07T01:28:00.906Z,9.20
2023-05-07T01:30:29.911Z,9.21
2023-05-07T01:32:59.203Z,9.21
2023-05-07T01:35:29.277Z,9.21
2023-05-07T01:37:55.712Z,9.22
2023-05-07T01:40:22.754Z,9.22
2023-05-07T01:42:49.107Z,9.21
2023-05-07T01:45:15.599Z,9.21
2023-05-07T01:47:42.664Z,9.21
2023-05-07T01:50:09.971Z,9.21
2023-05-07T01:52:38.590Z,9.21
2023-05-07T01:55:06.044Z,9.20
2023-05-07T01:57:32.558Z,9.19
2023-05-07T01:59:58.911Z,9.17
2023-05-07T02:02:25.412Z,9.16
2023-05-07T02:04:52.774Z,9.14
2023-05-07T02:07:22.644Z,9.12
2023-05-07T02:09:49.201Z,9.10
2023-05-07T02:12:15.805Z,9.08
2023-05-07T02:14:42.344Z,9.05
2023-05-07T02:17:08.660Z,9.02
2023-05-07T02:19:35.400Z,8.99
2023-05-07T02:22:01.737Z,8.93
2023-05-07T02:24:30.463Z,8.89
2023-05-07T02:26:56.992Z,8.84
2023-05-07T02:29:23.403Z,8.82
2023-05-07T02:31:49.824Z,8.79
2023-05-07T02:34:16.306Z,8.78
2023-05-07T02:36:42.877Z,8.77
2023-05-07T02:39:12.595Z,8.75
2023-05-07T02:41:39.010Z,8.74
2023-05-07T02:44:05.899Z,8.73
2023-05-07T02:46:32.833Z,8.71
2023-05-07T02:49:03.264Z,8.68
2023-05-07T02:51:30.457Z,8.65
2023-05-07T02:53:58.240Z,8.61
2023-05-07T02:56:26.485Z,8.59
2023-05-07T02:58:52.834Z,8.55
2023-05-07T03:01:19.867Z,8.54
2023-05-07T03:04:03.083Z,8.54
2023-05-07T03:06:29.588Z,8.53
2023-05-07T03:08:55.962Z,8.50
2023-05-07T03:11:22.329Z,8.48
2023-05-07T03:13:49.195Z,8.47
2023-05-07T03:16:17.544Z,8.46
2023-05-07T03:18:44.128Z,8.45
2023-05-07T03:21:11.087Z,8.43
2023-05-07T03:23:37.725Z,8.41
2023-05-07T03:26:04.134Z,8.39
2023-05-07T03:28:30.442Z,8.37
2023-05-07T03:31:00.187Z,8.37
2023-05-07T03:33:27.027Z,8.37
2023-05-07T03:35:54.309Z,8.38
2023-05-07T03:38:22.945Z,8.36
2023-05-07T03:40:49.802Z,8.34
2023-05-07T03:43:16.447Z,8.32
2023-05-07T03:45:46.882Z,8.31
2023-05-07T03:48:16.943Z,8.30
2023-05-07T03:50:43.442Z,8.31
2023-05-07T03:53:12.449Z,8.31
2023-05-07T03:55:39.473Z,8.31
2023-05-07T03:58:05.898Z,8.30
2023-05-07T04:00:32.645Z,8.30
2023-05-07T04:02:59.839Z,8.30
2023-05-07T04:05:28.876Z,8.29
2023-05-07T04:07:59.381Z,8.26
2023-05-07T04:10:30.289Z,8.24
2023-05-07T04:12:57.225Z,8.25
2023-05-07T04:15:24.043Z,8.23
2023-05-07T04:17:50.588Z,8.20
2023-05-07T04:20:18.536Z,8.18
2023-05-07T04:22:47.950Z,8.15
2023-05-07T04:25:16.302Z,8.15
2023-05-07T04:27:46.133Z,8.16
2023-05-07T04:30:13.530Z,8.16
2023-05-07T04:32:40.155Z,8.15
2023-05-07T04:35:06.884Z,8.16
2023-05-07T04:37:33.915Z,8.16
2023-05-07T04:40:00.826Z,8.16
2023-05-07T04:42:30.076Z,8.15
2023-05-07T04:44:56.487Z,8.14
2023-05-07T04:47:23.363Z,8.17
2023-05-07T04:49:50.911Z,8.16
2023-05-07T04:52:17.255Z,8.18
2023-05-07T04:54:43.655Z,8.18
2023-05-07T04:57:10.060Z,8.18
2023-05-07T04:59:38.979Z,8.19
2023-05-07T05:02:08.458Z,8.19
2023-05-07T05:04:34.898Z,8.16
2023-05-07T05:07:01.735Z,8.14
2023-05-07T05:09:28.369Z,8.07
2023-05-07T05:11:55.612Z,8.02
2023-05-07T05:14:24.258Z,8.02
2023-05-07T05:16:51.228Z,7.98
2023-05-07T05:19:18.223Z,7.95
2023-05-07T05:21:44.686Z,7.94
2023-05-07T05:24:13.754Z,7.93
2023-05-07T05:26:40.186Z,7.94
2023-05-07T05:29:07.731Z,7.96
2023-05-07T05:31:34.403Z,7.98
2023-05-07T05:34:00.869Z,7.98
2023-05-07T05:36:27.340Z,7.98
2023-05-07T05:38:55.833Z,7.97
2023-05-07T05:41:22.880Z,7.96
2023-05-07T05:43:52.249Z,7.96
2023-05-07T05:46:19.516Z,7.94
2023-05-07T05:48:46.781Z,7.95
2023-05-07T05:51:13.143Z,7.97
2023-05-07T05:53:39.572Z,7.99
2023-05-07T05:56:06.422Z,8.01
2023-05-07T05:58:33.589Z,8.01
2023-05-07T06:01:04.846Z,8.00
2023-05-07T06:03:31.889Z,8.01
2023-05-07T06:05:59.392Z,8.04
2023-05-07T06:08:26.490Z,8.09
2023-05-07T06:10:52.876Z,8.10
2023-05-07T06:13:19.414Z,8.11
2023-05-07T06:15:46.209Z,8.12
2023-05-07T06:18:13.014Z,8.03
2023-05-07T06:20:40.354Z,7.95
2023-05-07T06:23:09.945Z,7.93
2023-05-07T06:25:36.324Z,7.96
2023-05-07T06:28:03.071Z,8.00
2023-05-07T06:30:30.368Z,8.04
2023-05-07T06:32:57.728Z,8.07
2023-05-07T06:35:24.964Z,8.11
2023-05-07T06:37:51.456Z,8.17
2023-05-07T06:40:22.198Z,8.22
2023-05-07T06:42:49.054Z,8.23
2023-05-07T06:45:38.208Z,8.25
2023-05-07T06:48:05.014Z,8.30
2023-05-07T06:50:33.326Z,8.31
2023-05-07T06:53:00.782Z,8.31
2023-05-07T06:55:27.177Z,8.33
2023-05-07T06:57:53.963Z,8.37
2023-05-07T07:00:21.793Z,8.42
2023-05-07T07:02:52.134Z,8.50
2023-05-07T07:05:20.372Z,8.53
2023-05-07T07:07:46.850Z,8.53
2023-05-07T07:10:13.338Z,8.55
2023-05-07T07:12:39.801Z,8.51
2023-05-07T07:15:06.626Z,8.50
2023-05-07T07:17:33.082Z,8.53
2023-05-07T07:20:00.218Z,8.60
2023-05-07T07:22:26.595Z,8.67
2023-05-07T07:24:52.973Z,8.77
2023-05-07T07:27:19.391Z,8.82
2023-05-07T07:29:46.060Z,8.82
2023-05-07T07:32:12.597Z,8.75
2023-05-07T07:34:39.858Z,8.70
2023-05-07T07:37:06.657Z,8.68
2023-05-07T07:39:33.730Z,8.68
2023-05-07T07:42:00.543Z,8.63
2023-05-07T07:44:29.350Z,8.59
2023-05-07T07:46:58.608Z,8.54
2023-05-07T07:49:26.405Z,8.57
2023-05-07T07:51:53.397Z,8.63
2023-05-07T07:54:19.798Z,8.72
2023-05-07T07:56:46.636Z,8.81
2023-05-07T07:59:13.488Z,8.88
2023-05-07T08:01:40.384Z,8.92
2023-05-07T08:04:07.418Z,8.90
2023-05-07T08:06:36.816Z,8.90
2023-05-07T08:09:03.774Z,8.98
2023-05-07T08:11:38.044Z,9.10
2023-05-07T08:14:05.115Z,9.27
2023-05-07T08:16:31.973Z,9.35
2023-05-07T08:18:58.950Z,9.37
2023-05-07T08:21:25.560Z,9.36
2023-05-07T08:23:52.144Z,9.36
2023-05-07T08:26:18.994Z,9.32
2023-05-07T08:28:45.449Z,9.28
2023-05-07T08:31:14.419Z,9.29
2023-05-07T08:33:41.350Z,9.29
2023-05-07T08:36:10.516Z,9.29
2023-05-07T08:38:37.468Z,9.24
2023-05-07T08:41:06.505Z,9.17
2023-05-07T08:43:33.264Z,9.12
2023-05-07T08:46:01.296Z,9.11
2023-05-07T08:48:44.591Z,9.06
2023-05-07T08:51:19.824Z,9.01
2023-05-07T08:53:52.065Z,9.03
2023-05-07T08:56:25.212Z,9.10
2023-05-07T08:58:52.419Z,9.17
2023-05-07T09:01:19.389Z,9.25
2023-05-07T09:03:56.717Z,9.32
2023-05-07T09:06:23.891Z,9.42
2023-05-07T09:08:51.461Z,9.47
2023-05-07T09:11:20.403Z,9.49
2023-05-07T09:13:47.114Z,9.53
2023-05-07T09:16:22.801Z,9.53
2023-05-07T09:18:51.740Z,9.45
2023-05-07T09:21:18.912Z,9.40
2023-05-07T09:23:48.066Z,9.40
2023-05-07T09:26:14.793Z,9.40
2023-05-07T09:28:42.502Z,9.43
2023-05-07T09:31:10.796Z,9.43
2023-05-07T09:33:38.204Z,9.41
2023-05-07T09:36:05.709Z,9.41
2023-05-07T09:38:33.450Z,9.39
2023-05-07T09:41:07.182Z,9.37
2023-05-07T09:43:37.926Z,9.34
2023-05-07T09:46:11.703Z,9.34
2023-05-07T09:48:39.632Z,9.30
2023-05-07T09:51:15.875Z,9.26
2023-05-07T09:53:43.569Z,9.20
2023-05-07T09:56:11.557Z,9.20
2023-05-07T09:58:39.749Z,9.27
2023-05-07T10:01:06.862Z,9.35
2023-05-07T10:03:38.537Z,9.41
2023-05-07T10:06:05.568Z,9.37
2023-05-07T10:08:32.142Z,9.31
2023-05-07T10:10:59.958Z,9.27
2023-05-07T10:13:27.693Z,9.27
2023-05-07T10:15:55.961Z,9.28
2023-05-07T10:18:23.699Z,9.28
2023-05-07T10:20:51.804Z,9.23
2023-05-07T10:23:22.456Z,9.15
2023-05-07T10:25:49.057Z,9.09
2023-05-07T10:28:19.859Z,9.04
2023-05-07T10:30:56.185Z,8.98
2023-05-07T10:33:25.424Z,8.97
2023-05-07T10:35:56.014Z,9.01
2023-05-07T10:38:22.523Z,9.05
2023-05-07T10:40:54.552Z,9.09
2023-05-07T10:43:23.952Z,9.11
2023-05-07T10:46:14.281Z,9.09
2023-05-07T10:49:02.160Z,9.11
2023-05-07T10:51:34.996Z,9.12
2023-05-07T10:54:10.692Z,9.10
2023-05-07T10:56:38.830Z,9.10
2023-05-07T10:59:30.715Z,9.16
2023-05-07T11:02:00.429Z,9.22
2023-05-07T11:05:07.946Z,9.20
2023-05-07T11:07:34.911Z,9.25
2023-05-07T11:10:06.202Z,9.28
2023-05-07T11:12:53.742Z,9.23
2023-05-07T11:15:36.042Z,9.15
2023-05-07T11:18:07.372Z,9.18
2023-05-07T11:20:56.261Z,9.26
2023-05-07T11:23:40.208Z,9.32
2023-05-07T11:26:15.969Z,9.46
2023-05-07T11:28:44.006Z,9.56
2023-05-07T11:31:11.268Z,9.61
2023-05-07T11:33:38.628Z,9.69
2023-05-07T11:36:09.105Z,9.76
2023-05-07T11:38:41.120Z,9.91
2023-05-07T11:41:07.978Z,10.29
2023-05-07T11:43:35.119Z,10.72
2023-05-07T11:46:09.296Z,11.06
2023-05-07T11:48:36.797Z,11.13
2023-05-07T11:51:04.629Z,11.07
2023-05-07T11:53:41.752Z,10.93
2023-05-07T11:56:12.681Z,10.73
2023-05-07T11:58:39.896Z,10.54
2023-05-07T12:01:10.954Z,10.45
2023-05-07T12:03:38.623Z,10.32
2023-05-07T12:06:09.127Z,10.21
2023-05-07T12:08:39.606Z,10.08
2023-05-07T12:11:10.546Z,10.00
2023-05-07T12:13:48.028Z,9.97
2023-05-07T12:16:14.645Z,9.85
2023-05-07T12:18:41.600Z,9.71
2023-05-07T12:21:08.146Z,9.66
2023-05-07T12:23:43.908Z,9.63
2023-05-07T12:26:10.570Z,9.53
2023-05-07T12:28:38.431Z,9.38
2023-05-07T12:31:07.018Z,9.29
2023-05-07T12:33:35.898Z,9.35
2023-05-07T12:36:06.422Z,9.72
2023-05-07T12:38:36.979Z,10.26
2023-05-07T12:41:03.597Z,10.63
2023-05-07T12:43:38.792Z,10.72
2023-05-07T12:46:06.734Z,10.67
2023-05-07T12:48:33.544Z,10.47
2023-05-07T12:51:01.012Z,10.17
2023-05-07T12:53:28.177Z,9.89
2023-05-07T12:55:55.656Z,9.68
2023-05-07T12:58:31.224Z,9.49
2023-05-07T13:01:01.316Z,9.41
2023-05-07T13:03:28.984Z,9.37
2023-05-07T13:06:09.136Z,9.24
2023-05-07T13:09:06.980Z,9.07
2023-05-07T13:11:33.544Z,8.90
2023-05-07T13:13:59.985Z,8.77
2023-05-07T13:16:33.831Z,8.67
2023-05-07T13:19:00.299Z,8.59
2023-05-07T13:21:26.648Z,8.55
2023-05-07T13:23:53.060Z,8.56
2023-05-07T13:28:51.937Z,8.53
2023-05-07T13:31:18.500Z,8.58
2023-05-07T13:33:47.754Z,8.63
2023-05-07T13:36:14.970Z,8.76
2023-05-07T13:38:41.392Z,8.93
2023-05-07T13:41:07.866Z,9.04
2023-05-07T13:43:34.231Z,9.05
2023-05-07T13:46:01.066Z,9.01
2023-05-07T13:48:27.565Z,9.01
2023-05-07T13:50:54.011Z,9.13
2023-05-07T13:53:20.427Z,9.33
2023-05-07T13:55:46.896Z,9.46
2023-05-07T13:58:14.051Z,9.44
2023-05-07T14:00:40.538Z,9.40
2023-05-07T14:03:07.277Z,9.32
2023-05-07T14:05:33.778Z,9.25
2023-05-07T14:08:00.619Z,9.20
2023-05-07T14:10:27.110Z,9.16
2023-05-07T14:12:53.783Z,9.07
2023-05-07T14:15:20.398Z,9.00
2023-05-07T14:17:46.843Z,8.93
2023-05-07T14:20:13.537Z,8.85
2023-05-07T14:22:40.273Z,8.74
2023-05-07T14:25:07.527Z,8.63
2023-05-07T14:27:34.002Z,8.53
2023-05-07T14:30:00.369Z,8.41
2023-05-07T14:32:26.986Z,8.29
2023-05-07T14:34:53.443Z,8.26
2023-05-07T14:37:22.740Z,8.24
2023-05-07T14:39:50.976Z,8.23
2023-05-07T14:42:18.150Z,8.18
2023-05-07T14:44:45.529Z,8.14
2023-05-07T14:47:12.058Z,8.13
2023-05-07T14:49:38.792Z,8.12
2023-05-07T14:52:05.382Z,8.13
2023-05-07T14:54:33.784Z,8.18
2023-05-07T14:57:00.242Z,8.29
2023-05-07T14:59:26.621Z,8.38
2023-05-07T15:01:53.142Z,8.50
2023-05-07T15:04:24.090Z,8.64
2023-05-07T15:06:50.410Z,8.74
2023-05-07T15:09:16.781Z,8.80
2023-05-07T15:11:46.059Z,8.81
2023-05-07T15:14:12.508Z,8.76
2023-05-07T15:16:38.885Z,8.68
2023-05-07T15:19:05.337Z,8.62
2023-05-07T15:21:32.200Z,8.54
2023-05-07T15:23:58.715Z,8.49
2023-05-07T15:26:25.048Z,8.45
2023-05-07T15:28:51.453Z,8.37
2023-05-07T15:31:17.973Z,8.32
2023-05-07T15:33:44.667Z,8.24
2023-05-07T15:36:11.134Z,8.14
2023-05-07T15:38:38.106Z,8.02
2023-05-07T15:41:04.823Z,7.93
2023-05-07T15:43:31.462Z,7.83
2023-05-07T15:45:58.032Z,7.76
2023-05-07T15:48:27.209Z,7.72
2023-05-07T15:50:56.991Z,7.70
2023-05-07T15:53:23.558Z,7.67
2023-05-07T15:55:50.012Z,7.64
2023-05-07T15:58:16.531Z,7.59
2023-05-07T16:00:43.072Z,7.55
2023-05-07T16:03:09.916Z,7.53
2023-05-07T16:05:36.459Z,7.48
2023-05-07T16:08:05.820Z,7.47
2023-05-07T16:10:32.484Z,7.46
2023-05-07T16:12:59.106Z,7.46
2023-05-07T16:15:25.939Z,7.46
2023-05-07T16:17:52.463Z,7.47
2023-05-07T16:20:24.467Z,7.50
2023-05-07T16:22:51.249Z,7.51
2023-05-07T16:25:18.154Z,7.53
2023-05-07T16:27:44.504Z,7.53
2023-05-07T16:30:11.061Z,7.53
2023-05-07T16:32:37.512Z,7.52
2023-05-07T16:35:06.617Z,7.52
2023-05-07T16:37:33.980Z,7.50
2023-05-07T16:40:06.882Z,7.50
2023-05-07T16:42:34.933Z,7.51
2023-05-07T16:45:02.107Z,7.52
2023-05-07T16:47:28.944Z,7.54
2023-05-07T16:49:55.904Z,7.53
2023-05-07T16:52:32.253Z,7.52
2023-05-07T16:54:58.802Z,7.51
2023-05-07T16:57:26.015Z,7.48
2023-05-07T16:59:52.720Z,7.46
2023-05-07T17:02:19.368Z,7.46
2023-05-07T17:04:58.998Z,7.45
2023-05-07T17:07:25.849Z,7.42
2023-05-07T17:09:52.550Z,7.39
2023-05-07T17:12:21.535Z,7.41
2023-05-07T17:14:48.515Z,7.42
2023-05-07T17:17:18.311Z,7.42
2023-05-07T17:19:45.974Z,7.42
2023-05-07T17:22:13.073Z,7.42
2023-05-07T17:24:49.057Z,7.40
2023-05-07T17:27:27.300Z,7.37
2023-05-07T17:29:53.979Z,7.34
2023-05-07T17:32:20.581Z,7.31
2023-05-07T17:34:50.178Z,7.25
2023-05-07T17:37:16.761Z,7.20
2023-05-07T17:39:43.238Z,7.14
2023-05-07T17:42:09.945Z,7.09
2023-05-07T17:44:41.465Z,7.05
2023-05-07T17:47:13.309Z,7.01
2023-05-07T17:49:40.128Z,6.99
2023-05-07T17:52:06.604Z,6.97
2023-05-07T17:54:33.200Z,6.93
2023-05-07T17:56:59.763Z,6.90
2023-05-07T17:59:26.184Z,6.88
2023-05-07T18:01:52.708Z,6.85
2023-05-07T18:04:19.255Z,6.82
2023-05-07T18:06:45.802Z,6.81
2023-05-07T18:09:12.450Z,6.79
2023-05-07T18:11:39.113Z,6.80
2023-05-07T18:14:05.673Z,6.78
2023-05-07T18:16:32.531Z,6.75
2023-05-07T18:18:59.137Z,6.72
2023-05-07T18:21:25.567Z,6.71
2023-05-07T18:23:52.162Z,6.69
2023-05-07T18:26:18.578Z,6.67
2023-05-07T18:28:45.133Z,6.64
2023-05-07T18:31:11.576Z,6.62
2023-05-07T18:33:38.326Z,6.60
2023-05-07T18:36:05.133Z,6.58
2023-05-07T18:38:32.112Z,6.57
2023-05-07T18:41:04.989Z,6.54
2023-05-07T18:43:32.298Z,6.54
2023-05-07T18:45:58.900Z,6.55
2023-05-07T18:48:26.659Z,6.54
2023-05-07T18:50:53.436Z,6.53
2023-05-07T18:53:20.148Z,6.53
2023-05-07T18:55:52.348Z,6.54
2023-05-07T18:58:18.972Z,6.53
2023-05-07T19:00:46.763Z,6.53
2023-05-07T19:03:13.978Z,6.50
2023-05-07T19:05:41.989Z,6.49
2023-05-07T19:08:09.282Z,6.48
2023-05-07T19:10:35.958Z,6.47
2023-05-07T19:13:02.752Z,6.47
2023-05-07T19:15:29.580Z,6.47
2023-05-07T19:17:56.372Z,6.49
2023-05-07T19:20:22.866Z,6.48
2023-05-07T19:22:49.984Z,6.46
2023-05-07T19:25:17.233Z,6.45
2023-05-07T19:27:43.885Z,6.44
2023-05-07T19:30:11.828Z,6.44
2023-05-07T19:32:38.848Z,6.42
2023-05-07T19:35:07.064Z,6.40
2023-05-07T19:37:33.843Z,6.40
2023-05-07T19:40:00.390Z,6.40
2023-05-07T19:42:26.808Z,6.39
2023-05-07T19:44:53.240Z,6.39
2023-05-07T19:47:22.149Z,6.38
2023-05-07T19:49:48.925Z,6.37
2023-05-07T19:52:15.687Z,6.36
2023-05-07T19:54:42.367Z,6.35
2023-05-07T19:57:08.903Z,6.32
2023-05-07T19:59:35.880Z,6.30
2023-05-07T20:02:03.633Z,6.29
2023-05-07T20:04:30.289Z,6.29
2023-05-07T20:06:59.046Z,6.29
2023-05-07T20:09:25.571Z,6.28
2023-05-07T20:11:52.675Z,6.25
2023-05-07T20:14:22.113Z,6.23
2023-05-07T20:16:51.778Z,6.18
2023-05-07T20:19:18.614Z,6.12
2023-05-07T20:21:45.856Z,6.06
2023-05-07T20:24:12.444Z,5.98
2023-05-07T20:26:39.034Z,5.90
2023-05-07T20:29:05.596Z,5.81
2023-05-07T20:31:32.309Z,5.73
2023-05-07T20:33:58.820Z,5.66
2023-05-07T20:36:25.334Z,5.60
2023-05-07T20:38:51.945Z,5.52
2023-05-07T20:41:18.454Z,5.47
2023-05-07T20:43:47.637Z,5.43
2023-05-07T20:46:14.374Z,5.39
2023-05-07T20:48:40.883Z,5.34
2023-05-07T20:51:12.531Z,5.27
2023-05-07T20:53:39.091Z,5.20
2023-05-07T20:56:05.467Z,5.13
2023-05-07T20:58:34.764Z,5.06
2023-05-07T21:01:03.670Z,4.99
2023-05-07T21:03:41.150Z,4.94
2023-05-07T21:06:07.664Z,4.91
2023-05-07T21:08:34.249Z,4.89
2023-05-07T21:11:03.039Z,4.89
2023-05-07T21:13:30.971Z,4.90
2023-05-07T21:15:57.409Z,4.92
2023-05-07T21:18:23.892Z,4.96
2023-05-07T21:20:50.497Z,4.99
2023-05-07T21:23:16.829Z,5.03
2023-05-07T21:25:43.265Z,5.06
2023-05-07T21:28:09.732Z,5.11
2023-05-07T21:30:39.340Z,5.14
2023-05-07T21:33:08.299Z,5.18
2023-05-07T21:35:35.570Z,5.20
2023-05-07T21:38:02.006Z,5.18
2023-05-07T21:40:31.006Z,5.12
2023-05-07T21:43:00.056Z,5.08
2023-05-07T21:45:26.609Z,5.02
2023-05-07T21:47:53.039Z,5.00
2023-05-07T21:50:19.818Z,5.01
2023-05-07T21:52:46.207Z,5.05
2023-05-07T21:55:12.877Z,5.09
2023-05-07T21:57:39.876Z,5.14
2023-05-07T22:00:07.618Z,5.18
2023-05-07T22:02:34.072Z,5.23
2023-05-07T22:05:00.683Z,5.28
2023-05-07T22:07:27.118Z,5.32
2023-05-07T22:09:53.614Z,5.35
2023-05-07T22:12:20.126Z,5.39
2023-05-07T22:14:46.544Z,5.42
2023-05-07T22:17:12.974Z,5.44
2023-05-07T22:19:39.320Z,5.47
2023-05-07T22:22:05.861Z,5.50
2023-05-07T22:24:32.330Z,5.51
2023-05-07T22:26:58.806Z,5.54
2023-05-07T22:29:25.409Z,5.56
2023-05-07T22:31:51.798Z,5.59
2023-05-07T22:34:18.148Z,5.59
2023-05-07T22:36:44.623Z,5.61
2023-05-07T22:39:10.940Z,5.61
2023-05-07T22:41:37.380Z,5.61
2023-05-07T22:44:03.960Z,5.62
2023-05-07T22:46:30.356Z,5.62
2023-05-07T22:48:56.691Z,5.63
2023-05-07T22:51:23.051Z,5.64
2023-05-07T22:53:49.517Z,5.65
2023-05-07T22:56:15.857Z,5.65
2023-05-07T22:58:42.197Z,5.64
2023-05-07T23:01:12.352Z,5.64
2023-05-07T23:03:38.765Z,5.64
2023-05-07T23:06:05.273Z,5.64
2023-05-07T23:08:31.608Z,5.64
2023-05-07T23:10:57.933Z,5.64
2023-05-07T23:13:24.436Z,5.64
2023-05-07T23:15:50.922Z,5.65
2023-05-07T23:18:17.251Z,5.65
2023-05-07T23:20:43.656Z,5.65
2023-05-07T23:23:10.153Z,5.65
2023-05-07T23:25:36.586Z,5.65
2023-05-07T23:28:03.045Z,5.65
2023-05-07T23:30:29.458Z,5.65
2023-05-07T23:32:55.964Z,5.66
2023-05-07T23:35:22.490Z,5.66
2023-05-07T23:37:48.972Z,5.65
2023-05-07T23:40:16.603Z,5.64
2023-05-07T23:42:43.321Z,5.64
2023-05-07T23:45:09.868Z,5.63
2023-05-07T23:47:36.401Z,5.62
2023-05-07T23:50:02.822Z,5.62
2023-05-07T23:52:29.207Z,5.61
2023-05-07T23:54:55.727Z,5.61
2023-05-07T23:57:22.190Z,5.60
2023-05-07T23:59:48.544Z,5.61
